createdAt,value
2023-02-01T00:01:50.264Z,101361.97
2023-02-01T00:04:18.460Z,101364.53
2023-02-01T00:06:46.628Z,101367.19
2023-02-01T00:09:15.134Z,101360.59
2023-02-01T00:11:44.620Z,101360.31
2023-02-01T00:14:12.720Z,101362.25
2023-02-01T00:16:40.720Z,101357.63
2023-02-01T00:19:09.498Z,101362.25
2023-02-01T00:21:37.777Z,101362.00
2023-02-01T00:24:06.605Z,101369.56
2023-02-01T00:26:36.284Z,101367.72
2023-02-01T00:29:07.528Z,101365.25
2023-02-01T00:31:36.235Z,101369.25
2023-02-01T00:34:04.575Z,101361.94
2023-02-01T00:36:32.892Z,101364.22
2023-02-01T00:39:01.069Z,101363.09
2023-02-01T00:41:29.174Z,101356.13
2023-02-01T00:43:57.409Z,101346.69
2023-02-01T00:46:27.538Z,101349.47
2023-02-01T00:48:55.672Z,101347.03
2023-02-01T00:51:25.076Z,101341.25
2023-02-01T00:53:53.220Z,101354.88
2023-02-01T00:56:21.511Z,101348.03
2023-02-01T00:58:49.585Z,101341.91
2023-02-01T01:01:19.263Z,101352.59
2023-02-01T01:03:51.753Z,101352.41
2023-02-01T01:06:21.696Z,101345.78
2023-02-01T01:08:50.101Z,101349.75
2023-02-01T01:11:19.169Z,101347.78
2023-02-01T01:13:48.577Z,101337.31
2023-02-01T01:16:16.776Z,101339.03
2023-02-01T01:18:45.046Z,101340.81
2023-02-01T01:21:15.940Z,101346.06
2023-02-01T01:23:44.356Z,101342.88
2023-02-01T01:26:14.818Z,101340.94
2023-02-01T01:28:43.259Z,101332.16
2023-02-01T01:31:12.120Z,101332.16
2023-02-01T01:33:40.292Z,101331.19
2023-02-01T01:36:11.204Z,101326.59
2023-02-01T01:38:41.090Z,101313.19
2023-02-01T01:41:10.473Z,101309.63
2023-02-01T01:43:56.503Z,101319.50
2023-02-01T01:46:26.994Z,101312.88
2023-02-01T01:49:11.116Z,101318.47
2023-02-01T01:51:41.372Z,101312.56
2023-02-01T01:54:14.377Z,101303.81
2023-02-01T01:56:43.023Z,101307.44
2023-02-01T01:59:11.632Z,101304.75
2023-02-01T02:01:39.783Z,101304.75
2023-02-01T02:04:08.053Z,101304.53
2023-02-01T02:06:39.592Z,101308.59
2023-02-01T02:09:07.851Z,101298.31
2023-02-01T02:11:37.651Z,101278.13
2023-02-01T02:14:07.314Z,101297.19
2023-02-01T02:16:44.380Z,101304.25
2023-02-01T02:19:25.205Z,101293.34
2023-02-01T02:22:04.270Z,101299.31
2023-02-01T02:24:50.574Z,101299.94
2023-02-01T02:27:26.535Z,101294.34
2023-02-01T02:30:12.024Z,101292.19
2023-02-01T02:33:04.206Z,101298.81
2023-02-01T02:35:38.168Z,101295.16
2023-02-01T02:38:12.529Z,101305.09
2023-02-01T02:40:45.105Z,101303.03
2023-02-01T02:43:34.841Z,101289.84
2023-02-01T02:46:30.109Z,101276.91
2023-02-01T02:49:03.208Z,101287.63
2023-02-01T02:51:53.040Z,101284.00
2023-02-01T02:54:41.740Z,101284.44
2023-02-01T02:57:28.743Z,101278.56
2023-02-01T03:00:17.264Z,101273.53
2023-02-01T03:03:03.556Z,101280.72
2023-02-01T03:05:35.155Z,101278.28
2023-02-01T03:08:06.508Z,101292.41
2023-02-01T03:10:50.849Z,101287.81
2023-02-01T03:13:23.891Z,101286.81
2023-02-01T03:15:54.764Z,101289.28
2023-02-01T03:18:28.602Z,101295.63
2023-02-01T03:20:57.809Z,101290.03
2023-02-01T03:23:30.299Z,101290.78
2023-02-01T03:25:59.840Z,101282.50
2023-02-01T03:28:30.248Z,101279.59
2023-02-01T03:30:59.532Z,101277.63
2023-02-01T03:33:28.744Z,101269.59
2023-02-01T03:36:00.032Z,101257.19
2023-02-01T03:38:32.929Z,101256.31
2023-02-01T03:41:05.612Z,101251.59
2023-02-01T03:43:37.257Z,101253.50
2023-02-01T03:46:09.240Z,101244.50
2023-02-01T03:48:38.116Z,101260.59
2023-02-01T03:51:08.235Z,101264.25
2023-02-01T03:53:38.528Z,101253.50
2023-02-01T03:56:08.413Z,101250.34
2023-02-01T03:58:36.861Z,101241.31
2023-02-01T04:01:05.004Z,101250.56
2023-02-01T04:03:34.975Z,101244.81
2023-02-01T04:06:03.180Z,101251.97
2023-02-01T04:08:31.638Z,101247.84
2023-02-01T04:11:01.132Z,101253.41
2023-02-01T04:13:29.312Z,101251.19
2023-02-01T04:15:57.432Z,101254.50
2023-02-01T04:18:25.793Z,101257.31
2023-02-01T04:20:53.950Z,101261.66
2023-02-01T04:23:22.284Z,101260.19
2023-02-01T04:25:50.375Z,101262.13
2023-02-01T04:28:19.956Z,101263.09
2023-02-01T04:30:48.411Z,101263.97
2023-02-01T04:33:16.576Z,101274.69
2023-02-01T04:35:44.550Z,101273.81
2023-02-01T04:38:13.113Z,101261.84
2023-02-01T04:40:41.194Z,101264.41
2023-02-01T04:43:09.393Z,101266.56
2023-02-01T04:45:38.909Z,101279.09
2023-02-01T04:48:07.401Z,101280.81
2023-02-01T04:50:35.772Z,101272.66
2023-02-01T04:53:04.223Z,101277.19
2023-02-01T04:55:32.363Z,101277.69
2023-02-01T04:58:00.492Z,101277.03
2023-02-01T05:00:28.572Z,101282.78
2023-02-01T05:02:58.138Z,101282.34
2023-02-01T05:05:26.669Z,101278.34
2023-02-01T05:07:54.985Z,101277.16
2023-02-01T05:10:23.344Z,101287.63
2023-02-01T05:13:09.104Z,101271.31
2023-02-01T05:15:37.372Z,101278.41
2023-02-01T05:18:07.086Z,101271.97
2023-02-01T05:20:35.363Z,101267.22
2023-02-01T05:23:03.455Z,101267.22
2023-02-01T05:25:31.538Z,101254.53
2023-02-01T05:27:59.644Z,101260.88
2023-02-01T05:30:27.833Z,101257.31
2023-02-01T05:32:56.189Z,101254.75
2023-02-01T05:35:25.749Z,101250.59
2023-02-01T05:37:54.001Z,101242.78
2023-02-01T05:40:22.897Z,101242.56
2023-02-01T05:42:51.309Z,101240.88
2023-02-01T05:45:19.462Z,101241.72
2023-02-01T05:47:47.490Z,101238.06
2023-02-01T05:50:15.723Z,101233.56
2023-02-01T05:52:45.317Z,101236.13
2023-02-01T05:55:13.638Z,101238.44
2023-02-01T05:57:41.658Z,101232.00
2023-02-01T06:00:10.991Z,101237.03
2023-02-01T06:02:43.485Z,101235.44
2023-02-01T06:05:11.680Z,101235.19
2023-02-01T06:07:39.799Z,101236.28
2023-02-01T06:10:10.123Z,101233.47
2023-02-01T06:12:38.475Z,101244.09
2023-02-01T06:15:07.160Z,101246.53
2023-02-01T06:17:35.151Z,101247.75
2023-02-01T06:20:03.300Z,101242.19
2023-02-01T06:22:31.596Z,101247.31
2023-02-01T06:25:00.060Z,101238.31
2023-02-01T06:27:29.426Z,101243.66
2023-02-01T06:29:57.497Z,101241.72
2023-02-01T06:32:25.868Z,101246.84
2023-02-01T06:34:54.204Z,101244.91
2023-02-01T06:37:22.370Z,101256.25
2023-02-01T06:39:50.467Z,101252.59
2023-02-01T06:42:18.779Z,101243.66
2023-02-01T06:44:48.452Z,101252.47
2023-02-01T06:47:16.524Z,101253.84
2023-02-01T06:49:44.855Z,101255.19
2023-02-01T06:52:13.052Z,101252.00
2023-02-01T06:54:41.175Z,101261.41
2023-02-01T06:57:09.218Z,101267.41
2023-02-01T06:59:37.260Z,101267.88
2023-02-01T07:02:06.818Z,101269.47
2023-02-01T07:04:35.251Z,101262.78
2023-02-01T07:07:03.380Z,101270.59
2023-02-01T07:09:31.565Z,101271.09
2023-02-01T07:11:59.572Z,101268.16
2023-02-01T07:14:27.668Z,101283.06
2023-02-01T07:16:55.822Z,101287.97
2023-02-01T07:19:25.556Z,101282.34
2023-02-01T07:21:53.848Z,101276.97
2023-02-01T07:24:21.985Z,101273.31
2023-02-01T07:26:52.106Z,101274.78
2023-02-01T07:29:20.531Z,101272.56
2023-02-01T07:31:48.617Z,101278.81
2023-02-01T07:34:17.142Z,101280.28
2023-02-01T07:36:47.129Z,101285.66
2023-02-01T07:39:15.284Z,101279.19
2023-02-01T07:41:43.300Z,101282.84
2023-02-01T07:44:15.005Z,101281.13
2023-02-01T07:46:44.359Z,101275.50
2023-02-01T07:49:16.375Z,101272.44
2023-02-01T07:51:44.596Z,101269.03
2023-02-01T07:54:14.643Z,101271.34
2023-02-01T07:56:42.740Z,101277.72
2023-02-01T07:59:12.152Z,101277.94
2023-02-01T08:01:40.412Z,101271.59
2023-02-01T08:04:08.638Z,101279.78
2023-02-01T08:06:37.258Z,101274.66
2023-02-01T08:09:05.873Z,101275.50
2023-02-01T08:11:37.702Z,101284.31
2023-02-01T08:14:06.080Z,101282.59
2023-02-01T08:16:36.262Z,101282.47
2023-02-01T08:19:04.571Z,101276.00
2023-02-01T08:21:37.910Z,101290.91
2023-02-01T08:24:07.230Z,101284.53
2023-02-01T08:26:36.963Z,101286.13
2023-02-01T08:29:06.158Z,101283.06
2023-02-01T08:31:34.494Z,101289.06
2023-02-01T08:34:05.235Z,101283.41
2023-02-01T08:36:33.897Z,101297.59
2023-02-01T08:39:02.380Z,101305.53
2023-02-01T08:41:31.848Z,101303.81
2023-02-01T08:44:01.374Z,101309.81
2023-02-01T08:46:29.527Z,101301.13
2023-02-01T08:48:57.640Z,101305.28
2023-02-01T08:51:26.096Z,101306.75
2023-02-01T08:53:54.358Z,101310.91
2023-02-01T08:56:22.921Z,101309.31
2023-02-01T08:58:51.118Z,101302.31
2023-02-01T09:01:20.701Z,101307.19
2023-02-01T09:03:48.859Z,101315.13
2023-02-01T09:06:17.527Z,101305.25
2023-02-01T09:08:45.858Z,101298.63
2023-02-01T09:11:15.548Z,101305.25
2023-02-01T09:13:43.877Z,101312.09
2023-02-01T09:16:12.092Z,101303.38
2023-02-01T09:18:50.667Z,101309.09
2023-02-01T09:21:24.648Z,101314.81
2023-02-01T09:23:53.076Z,101301.13
2023-02-01T09:26:26.502Z,101303.31
2023-02-01T09:28:59.440Z,101319.19
2023-02-01T09:31:27.671Z,101313.28
2023-02-01T09:33:57.654Z,101303.97
2023-02-01T09:36:26.160Z,101313.09
2023-02-01T09:38:54.630Z,101307.59
2023-02-01T09:41:29.276Z,101308.47
2023-02-01T09:44:02.274Z,101309.16
2023-02-01T09:46:31.587Z,101305.97
2023-02-01T09:49:03.977Z,101317.81
2023-02-01T09:51:34.609Z,101305.13
2023-02-01T09:54:05.532Z,101303.66
2023-02-01T09:56:37.715Z,101297.88
2023-02-01T09:59:10.499Z,101306.84
2023-02-01T10:01:39.422Z,101310.84
2023-02-01T10:04:11.218Z,101315.22
2023-02-01T10:06:45.976Z,101301.88
2023-02-01T10:09:23.173Z,101318.25
2023-02-01T10:12:01.491Z,101326.78
2023-02-01T10:14:41.966Z,101330.19
2023-02-01T10:17:16.588Z,101339.59
2023-02-01T10:19:50.311Z,101342.88
2023-02-01T10:22:41.051Z,101341.59
2023-02-01T10:25:18.527Z,101326.88
2023-02-01T10:27:47.521Z,101335.25
2023-02-01T10:30:20.482Z,101337.63
2023-02-01T10:32:50.102Z,101350.28
2023-02-01T10:35:20.812Z,101354.97
2023-02-01T10:37:48.924Z,101364.56
2023-02-01T10:40:22.902Z,101363.97
2023-02-01T10:42:52.169Z,101367.97
2023-02-01T10:45:21.580Z,101366.78
2023-02-01T10:47:51.822Z,101362.47
2023-02-01T10:50:27.383Z,101374.41
2023-02-01T10:52:59.057Z,101379.66
2023-02-01T10:55:41.377Z,101383.66
2023-02-01T10:58:16.373Z,101376.88
2023-02-01T11:00:46.453Z,101377.72
2023-02-01T11:03:33.069Z,101377.50
2023-02-01T11:06:03.545Z,101368.03
2023-02-01T11:08:31.996Z,101359.97
2023-02-01T11:11:01.799Z,101356.28
2023-02-01T11:13:32.041Z,101346.88
2023-02-01T11:16:00.279Z,101354.78
2023-02-01T11:18:30.107Z,101351.97
2023-02-01T11:20:58.441Z,101359.09
2023-02-01T11:23:29.033Z,101371.19
2023-02-01T11:25:58.192Z,101362.41
2023-02-01T11:28:27.940Z,101370.94
2023-02-01T11:30:57.878Z,101370.09
2023-02-01T11:33:30.856Z,101363.59
2023-02-01T11:36:00.397Z,101357.22
2023-02-01T11:38:31.990Z,101360.47
2023-02-01T11:41:14.268Z,101347.44
2023-02-01T11:43:52.857Z,101350.41
2023-02-01T11:46:26.046Z,101344.16
2023-02-01T11:48:55.693Z,101344.31
2023-02-01T11:51:31.412Z,101336.06
2023-02-01T11:54:14.514Z,101327.66
2023-02-01T11:56:50.532Z,101330.97
2023-02-01T11:59:28.038Z,101334.09
2023-02-01T12:02:19.163Z,101325.28
2023-02-01T12:04:58.623Z,101312.22
2023-02-01T12:07:32.727Z,101307.97
2023-02-01T12:10:07.724Z,101315.63
2023-02-01T12:12:41.363Z,101312.63
2023-02-01T12:15:19.017Z,101318.09
2023-02-01T12:17:59.364Z,101306.31
2023-02-01T12:20:36.781Z,101297.94
2023-02-01T12:23:23.069Z,101304.34
2023-02-01T12:26:05.421Z,101295.47
2023-02-01T12:28:48.400Z,101294.75
2023-02-01T12:31:31.436Z,101302.25
2023-02-01T12:34:05.941Z,101292.41
2023-02-01T12:36:38.987Z,101297.22
2023-02-01T12:39:12.845Z,101299.66
2023-02-01T12:41:52.681Z,101288.97
2023-02-01T12:44:27.797Z,101286.34
2023-02-01T12:46:59.065Z,101294.19
2023-02-01T12:49:32.809Z,101287.28
2023-02-01T12:52:02.868Z,101291.25
2023-02-01T12:54:34.916Z,101290.88
2023-02-01T12:57:06.499Z,101289.47
2023-02-01T12:59:37.273Z,101300.41
2023-02-01T13:02:15.361Z,101288.03
2023-02-01T13:04:51.130Z,101298.44
2023-02-01T13:07:21.015Z,101298.00
2023-02-01T13:09:52.041Z,101297.00
2023-02-01T13:12:23.237Z,101276.97
2023-02-01T13:14:54.894Z,101276.97
2023-02-01T13:17:25.831Z,101263.19
2023-02-01T13:19:57.753Z,101274.69
2023-02-01T13:22:28.432Z,101270.16
2023-02-01T13:24:59.074Z,101265.59
2023-02-01T13:27:31.388Z,101270.59
2023-02-01T13:30:01.320Z,101283.22
2023-02-01T13:32:53.054Z,101282.38
2023-02-01T13:35:34.995Z,101281.94
2023-02-01T13:38:17.733Z,101289.47
2023-02-01T13:40:48.603Z,101288.50
2023-02-01T13:43:18.691Z,101287.47
2023-02-01T13:45:48.881Z,101284.34
2023-02-01T13:48:34.759Z,101283.75
2023-02-01T13:51:04.668Z,101284.34
2023-02-01T13:53:34.140Z,101289.47
2023-02-01T13:56:03.463Z,101275.25
2023-02-01T13:58:32.995Z,101279.97
2023-02-01T14:01:19.694Z,101278.66
2023-02-01T14:03:49.120Z,101277.84
2023-02-01T14:06:38.265Z,101271.44
2023-02-01T14:09:15.481Z,101268.72
2023-02-01T14:11:45.109Z,101255.97
2023-02-01T14:14:48.249Z,101258.22
2023-02-01T14:17:49.567Z,101264.91
2023-02-01T14:20:46.535Z,101270.00
2023-02-01T14:23:18.040Z,101280.94
2023-02-01T14:25:46.619Z,101289.03
2023-02-01T14:28:21.862Z,101293.13
2023-02-01T14:30:51.035Z,101300.81
2023-02-01T14:33:22.642Z,101301.75
2023-02-01T14:36:05.398Z,101300.78
2023-02-01T14:38:37.788Z,101301.78
2023-02-01T14:41:21.267Z,101314.25
2023-02-01T14:43:51.804Z,101314.13
2023-02-01T14:46:21.423Z,101316.53
2023-02-01T14:48:49.867Z,101321.19
2023-02-01T14:51:19.827Z,101315.22
2023-02-01T14:53:49.797Z,101310.91
2023-02-01T14:56:21.386Z,101308.84
2023-02-01T14:58:53.441Z,101306.44
2023-02-01T15:01:24.137Z,101304.88
2023-02-01T15:03:55.631Z,101303.63
2023-02-01T15:06:35.227Z,101297.66
2023-02-01T15:09:06.568Z,101296.50
2023-02-01T15:11:34.860Z,101281.19
2023-02-01T15:14:02.877Z,101288.59
2023-02-01T15:16:31.225Z,101283.03
2023-02-01T15:19:17.371Z,101283.47
2023-02-01T15:21:47.346Z,101289.13
2023-02-01T15:24:21.114Z,101272.69
2023-02-01T15:26:49.710Z,101270.16
2023-02-01T15:29:17.867Z,101273.25
2023-02-01T15:31:47.291Z,101272.56
2023-02-01T15:34:15.594Z,101270.28
2023-02-01T15:37:00.407Z,101263.03
2023-02-01T15:39:33.638Z,101246.56
2023-02-01T15:42:03.395Z,101236.06
2023-02-01T15:44:34.614Z,101255.78
2023-02-01T15:47:10.280Z,101263.56
2023-02-01T15:49:42.346Z,101260.19
2023-02-01T15:52:31.530Z,101267.84
2023-02-01T15:55:02.769Z,101279.22
2023-02-01T15:57:32.803Z,101276.09
2023-02-01T16:00:02.363Z,101274.94
2023-02-01T16:02:45.508Z,101289.44
2023-02-01T16:05:29.560Z,101285.44
2023-02-01T16:07:59.192Z,101294.78
2023-02-01T16:10:29.615Z,101298.09
2023-02-01T16:13:01.623Z,101299.06
2023-02-01T16:15:31.042Z,101299.50
2023-02-01T16:17:59.594Z,101299.91
2023-02-01T16:20:27.870Z,101306.69
2023-02-01T16:22:56.106Z,101294.72
2023-02-01T16:25:24.569Z,101293.00
2023-02-01T16:27:54.364Z,101301.19
2023-02-01T16:30:25.054Z,101299.75
2023-02-01T16:32:56.055Z,101300.78
2023-02-01T16:35:26.125Z,101301.56
2023-02-01T16:37:54.586Z,101292.03
2023-02-01T16:40:23.805Z,101288.66
2023-02-01T16:42:53.323Z,101292.88
2023-02-01T16:45:24.103Z,101307.59
2023-02-01T16:47:55.543Z,101308.97
2023-02-01T16:50:24.694Z,101313.75
2023-02-01T16:52:54.044Z,101310.09
2023-02-01T16:55:23.991Z,101312.38
2023-02-01T16:57:52.826Z,101314.94
2023-02-01T17:00:29.757Z,101309.97
2023-02-01T17:02:59.959Z,101301.59
2023-02-01T17:05:28.389Z,101307.41
2023-02-01T17:07:59.703Z,101304.84
2023-02-01T17:10:34.082Z,101310.38
2023-02-01T17:13:03.737Z,101312.09
2023-02-01T17:15:37.474Z,101320.88
2023-02-01T17:18:06.519Z,101326.53
2023-02-01T17:20:34.601Z,101330.81
2023-02-01T17:23:03.522Z,101332.88
2023-02-01T17:25:33.262Z,101336.19
2023-02-01T17:28:02.407Z,101342.41
2023-02-01T17:30:32.640Z,101339.03
2023-02-01T17:33:13.328Z,101345.66
2023-02-01T17:35:56.909Z,101340.69
2023-02-01T17:38:27.215Z,101327.38
2023-02-01T17:40:56.117Z,101339.03
2023-02-01T17:43:26.126Z,101341.25
2023-02-01T17:45:56.473Z,101346.09
2023-02-01T17:48:28.546Z,101350.50
2023-02-01T17:51:00.543Z,101352.34
2023-02-01T17:53:29.886Z,101342.41
2023-02-01T17:55:59.552Z,101347.19
2023-02-01T17:58:30.797Z,101349.19
2023-02-01T18:01:00.366Z,101344.41
2023-02-01T18:03:33.032Z,101356.28
2023-02-01T18:06:02.723Z,101345.53
2023-02-01T18:08:33.481Z,101355.19
2023-02-01T18:11:02.929Z,101360.81
2023-02-01T18:13:32.198Z,101360.81
2023-02-01T18:16:02.118Z,101355.81
2023-02-01T18:18:33.838Z,101360.09
2023-02-01T18:21:02.087Z,101353.53
2023-02-01T18:23:30.914Z,101352.28
2023-02-01T18:25:58.999Z,101354.00
2023-02-01T18:28:27.309Z,101353.00
2023-02-01T18:30:55.848Z,101348.84
2023-02-01T18:33:24.226Z,101342.00
2023-02-01T18:35:53.811Z,101346.91
2023-02-01T18:38:22.019Z,101355.47
2023-02-01T18:40:51.694Z,101356.78
2023-02-01T18:43:20.616Z,101361.59
2023-02-01T18:45:49.260Z,101361.13
2023-02-01T18:48:18.101Z,101349.91
2023-02-01T18:50:46.994Z,101358.78
2023-02-01T18:53:17.468Z,101370.16
2023-02-01T18:55:45.680Z,101374.34
2023-02-01T18:58:16.149Z,101372.38
2023-02-01T19:00:45.119Z,101377.16
2023-02-01T19:03:13.810Z,101378.31
2023-02-01T19:05:42.363Z,101369.47
2023-02-01T19:08:11.221Z,101367.91
2023-02-01T19:10:42.761Z,101366.06
2023-02-01T19:13:13.574Z,101373.41
2023-02-01T19:15:41.971Z,101368.03
2023-02-01T19:18:10.694Z,101367.19
2023-02-01T19:20:41.363Z,101358.50
2023-02-01T19:23:09.896Z,101357.78
2023-02-01T19:25:38.436Z,101357.53
2023-02-01T19:28:07.936Z,101364.88
2023-02-01T19:30:36.062Z,101367.81
2023-02-01T19:33:04.680Z,101375.66
2023-02-01T19:35:33.415Z,101377.59
2023-02-01T19:38:02.417Z,101379.59
2023-02-01T19:40:31.217Z,101379.31
2023-02-01T19:42:59.278Z,101389.34
2023-02-01T19:45:28.756Z,101390.50
2023-02-01T19:47:56.932Z,101388.50
2023-02-01T19:50:25.271Z,101392.03
2023-02-01T19:52:53.683Z,101401.97
2023-02-01T19:55:22.088Z,101399.41
2023-02-01T19:57:50.343Z,101402.72
2023-02-01T20:00:21.598Z,101409.19
2023-02-01T20:02:51.168Z,101400.13
2023-02-01T20:05:19.825Z,101399.41
2023-02-01T20:07:48.210Z,101401.97
2023-02-01T20:10:17.060Z,101402.09
2023-02-01T20:12:47.359Z,101405.91
2023-02-01T20:15:15.585Z,101395.25
2023-02-01T20:17:44.863Z,101396.22
2023-02-01T20:20:15.493Z,101385.72
2023-02-01T20:22:45.210Z,101385.72
2023-02-01T20:25:13.255Z,101394.81
2023-02-01T20:27:42.340Z,101385.28
2023-02-01T20:30:11.035Z,101390.53
2023-02-01T20:32:39.444Z,101390.03
2023-02-01T20:35:08.573Z,101394.47
2023-02-01T20:37:38.178Z,101395.03
2023-02-01T20:40:06.978Z,101399.31
2023-02-01T20:42:36.123Z,101397.59
2023-02-01T20:45:05.187Z,101401.03
2023-02-01T20:47:35.348Z,101394.28
2023-02-01T20:50:04.981Z,101399.66
2023-02-01T20:52:38.046Z,101396.00
2023-02-01T20:55:08.567Z,101394.03
2023-02-01T20:57:38.379Z,101387.78
2023-02-01T21:00:10.938Z,101387.06
2023-02-01T21:02:39.247Z,101397.09
2023-02-01T21:05:08.102Z,101386.72
2023-02-01T21:07:38.595Z,101386.00
2023-02-01T21:10:12.962Z,101382.31
2023-02-01T21:12:44.739Z,101381.13
2023-02-01T21:15:12.867Z,101365.25
2023-02-01T21:17:41.251Z,101378.69
2023-02-01T21:20:10.078Z,101377.38
2023-02-01T21:22:40.299Z,101374.56
2023-02-01T21:25:11.944Z,101384.97
2023-02-01T21:27:40.267Z,101382.41
2023-02-01T21:30:08.992Z,101374.88
2023-02-01T21:32:37.276Z,101366.94
2023-02-01T21:35:05.614Z,101386.38
2023-02-01T21:37:35.255Z,101373.91
2023-02-01T21:40:03.798Z,101382.44
2023-02-01T21:42:33.323Z,101384.16
2023-02-01T21:45:02.485Z,101383.91
2023-02-01T21:47:30.646Z,101385.50
2023-02-01T21:49:59.133Z,101380.00
2023-02-01T21:52:28.060Z,101391.34
2023-02-01T21:54:59.627Z,101387.69
2023-02-01T21:57:29.455Z,101389.53
2023-02-01T21:59:59.619Z,101387.41
2023-02-01T22:02:28.186Z,101386.31
2023-02-01T22:04:57.803Z,101380.94
2023-02-01T22:07:25.962Z,101384.38
2023-02-01T22:09:54.156Z,101391.44
2023-02-01T22:12:22.970Z,101387.78
2023-02-01T22:14:51.048Z,101397.31
2023-02-01T22:17:20.629Z,101383.38
2023-02-01T22:19:49.153Z,101378.72
2023-02-01T22:22:17.341Z,101380.69
2023-02-01T22:24:45.399Z,101383.25
2023-02-01T22:27:14.732Z,101382.88
2023-02-01T22:29:43.575Z,101380.41
2023-02-01T22:32:13.922Z,101383.84
2023-02-01T22:34:44.118Z,101378.47
2023-02-01T22:37:12.403Z,101373.69
2023-02-01T22:39:41.365Z,101369.28
2023-02-01T22:42:10.141Z,101368.91
2023-02-01T22:44:39.317Z,101372.44
2023-02-01T22:47:09.268Z,101372.56
2023-02-01T22:49:37.559Z,101369.75
2023-02-01T22:52:07.865Z,101370.38
2023-02-01T22:54:36.444Z,101362.88
2023-02-01T22:57:05.329Z,101370.69
2023-02-01T22:59:34.432Z,101365.56
2023-02-01T23:02:02.544Z,101360.44
2023-02-01T23:04:30.641Z,101364.97
2023-02-01T23:07:00.095Z,101369.38
2023-02-01T23:09:29.676Z,101368.66
2023-02-01T23:11:58.925Z,101365.94
2023-02-01T23:14:27.028Z,101363.66
2023-02-01T23:16:55.328Z,101365.13
2023-02-01T23:19:23.594Z,101363.25
2023-02-01T23:21:51.649Z,101362.06
2023-02-01T23:24:19.695Z,101371.72
2023-02-01T23:26:49.156Z,101367.19
2023-02-01T23:29:19.108Z,101369.16
2023-02-01T23:31:47.460Z,101375.41
2023-02-01T23:34:15.716Z,101373.31
2023-02-01T23:36:44.079Z,101376.22
2023-02-01T23:39:12.270Z,101374.28
2023-02-01T23:41:40.378Z,101374.03
2023-02-01T23:44:10.021Z,101376.50
2023-02-01T23:46:39.145Z,101376.00
2023-02-01T23:49:08.228Z,101391.75
2023-02-01T23:51:36.568Z,101388.47
2023-02-01T23:54:05.093Z,101390.19
2023-02-01T23:56:35.041Z,101395.56
2023-02-01T23:59:03.857Z,101384.53
